createdAt,value
2023-03-14T00:01:47.385Z,0.94
2023-03-14T00:04:17.234Z,0.76
2023-03-14T00:06:47.979Z,0.61
2023-03-14T00:09:20.805Z,0.78
2023-03-14T00:11:50.657Z,0.65
2023-03-14T00:14:20.510Z,0.70
2023-03-14T00:16:50.579Z,0.78
2023-03-14T00:19:20.427Z,0.83
2023-03-14T00:21:50.701Z,0.78
2023-03-14T00:24:23.154Z,0.73
2023-03-14T00:26:53.279Z,0.83
2023-03-14T00:29:23.143Z,0.88
2023-03-14T00:31:54.276Z,0.71
2023-03-14T00:34:24.239Z,0.60
2023-03-14T00:36:54.120Z,0.79
2023-03-14T00:39:26.555Z,0.73
2023-03-14T00:41:56.338Z,0.65
2023-03-14T00:44:26.247Z,0.62
2023-03-14T00:46:56.365Z,0.72
2023-03-14T00:49:26.376Z,0.70
2023-03-14T00:51:56.310Z,0.73
2023-03-14T00:54:28.785Z,0.73
2023-03-14T00:56:59.556Z,0.62
2023-03-14T00:59:29.489Z,0.54
2023-03-14T01:01:59.429Z,0.62
2023-03-14T01:04:31.371Z,0.64
2023-03-14T01:07:01.176Z,0.75
2023-03-14T01:09:33.712Z,0.86
2023-03-14T01:12:03.572Z,0.68
2023-03-14T01:14:33.383Z,0.66
2023-03-14T01:17:03.468Z,0.69
2023-03-14T01:19:33.374Z,0.67
2023-03-14T01:22:03.457Z,0.72
2023-03-14T01:24:35.896Z,0.75
2023-03-14T01:27:06.197Z,0.75
2023-03-14T01:29:36.068Z,0.74
2023-03-14T01:32:06.225Z,0.84
2023-03-14T01:34:36.271Z,0.80
2023-03-14T01:37:07.124Z,0.82
2023-03-14T01:39:39.705Z,0.81
2023-03-14T01:42:09.698Z,0.92
2023-03-14T01:44:56.403Z,0.91
2023-03-14T01:47:27.944Z,0.83
2023-03-14T01:50:05.239Z,0.71
2023-03-14T01:52:42.927Z,0.81
2023-03-14T01:55:19.227Z,0.95
2023-03-14T01:57:55.365Z,0.97
2023-03-14T02:00:27.038Z,0.93
2023-03-14T02:03:03.749Z,0.82
2023-03-14T02:05:38.185Z,0.82
2023-03-14T02:08:17.831Z,0.90
2023-03-14T02:10:55.300Z,0.81
2023-03-14T02:13:34.410Z,0.88
2023-03-14T02:16:15.714Z,0.75
2023-03-14T02:18:53.980Z,1.04
2023-03-14T02:21:31.526Z,0.71
2023-03-14T02:24:12.444Z,0.88
2023-03-14T02:27:06.908Z,0.90
2023-03-14T02:29:43.754Z,0.88
2023-03-14T02:32:15.451Z,0.74
2023-03-14T02:34:49.746Z,0.84
2023-03-14T02:37:24.286Z,0.94
2023-03-14T02:39:54.672Z,0.90
2023-03-14T02:42:27.352Z,0.88
2023-03-14T02:45:03.318Z,0.89
2023-03-14T02:47:34.476Z,0.96
2023-03-14T02:50:10.345Z,0.93
2023-03-14T02:52:40.184Z,0.86
2023-03-14T02:55:11.847Z,0.90
2023-03-14T02:57:47.347Z,1.00
2023-03-14T03:00:18.432Z,0.91
2023-03-14T03:02:49.474Z,0.90
2023-03-14T03:05:19.874Z,0.93
2023-03-14T03:07:49.695Z,1.02
2023-03-14T03:10:20.539Z,0.80
2023-03-14T03:12:53.320Z,1.03
2023-03-14T03:15:26.865Z,0.95
2023-03-14T03:17:56.917Z,1.02
2023-03-14T03:20:27.054Z,1.04
2023-03-14T03:22:56.890Z,1.15
2023-03-14T03:25:26.765Z,1.08
2023-03-14T03:27:59.247Z,1.02
2023-03-14T03:30:30.470Z,1.31
2023-03-14T03:33:00.572Z,1.05
2023-03-14T03:35:31.863Z,0.88
2023-03-14T03:38:01.950Z,1.13
2023-03-14T03:40:32.508Z,0.88
2023-03-14T03:43:05.403Z,1.01
2023-03-14T03:45:39.245Z,0.93
2023-03-14T03:48:10.297Z,1.03
2023-03-14T03:50:40.167Z,1.08
2023-03-14T03:53:10.268Z,1.18
2023-03-14T03:55:40.169Z,1.24
2023-03-14T03:58:12.878Z,0.99
2023-03-14T04:00:43.543Z,1.04
2023-03-14T04:03:13.579Z,1.07
2023-03-14T04:05:43.737Z,1.10
2023-03-14T04:08:14.168Z,1.44
2023-03-14T04:10:44.015Z,1.11
2023-03-14T04:13:26.359Z,1.30
2023-03-14T04:15:59.301Z,1.14
2023-03-14T04:18:32.034Z,1.20
2023-03-14T04:21:01.974Z,1.11
2023-03-14T04:23:40.764Z,1.48
2023-03-14T04:26:10.734Z,1.18
2023-03-14T04:28:43.358Z,1.16
2023-03-14T04:31:16.803Z,1.45
2023-03-14T04:33:46.842Z,1.16
2023-03-14T04:36:19.776Z,1.32
2023-03-14T04:38:49.671Z,1.38
2023-03-14T04:41:23.154Z,1.24
2023-03-14T04:43:55.643Z,1.45
2023-03-14T04:46:25.861Z,1.18
2023-03-14T04:48:57.207Z,1.20
2023-03-14T04:51:28.385Z,1.25
2023-03-14T04:53:58.607Z,1.33
2023-03-14T04:56:28.656Z,1.10
2023-03-14T04:59:01.848Z,1.17
2023-03-14T05:01:31.703Z,1.10
2023-03-14T05:04:24.905Z,1.43
2023-03-14T05:07:20.512Z,1.30
2023-03-14T05:10:11.079Z,1.26
2023-03-14T05:12:48.806Z,1.60
2023-03-14T05:15:47.690Z,1.42
2023-03-14T05:18:31.255Z,1.33
2023-03-14T05:21:30.859Z,1.37
2023-03-14T05:24:19.188Z,1.27
2023-03-14T05:27:01.155Z,1.20
2023-03-14T05:29:36.867Z,1.11
2023-03-14T05:32:47.455Z,1.29
2023-03-14T05:35:37.604Z,1.44
2023-03-14T05:38:23.102Z,1.18
2023-03-14T05:41:08.045Z,0.83
2023-03-14T05:43:57.988Z,1.05
2023-03-14T05:46:56.656Z,1.10
2023-03-14T05:49:56.615Z,1.08
2023-03-14T05:52:58.473Z,1.05
2023-03-14T05:55:58.041Z,0.86
2023-03-14T05:59:04.306Z,0.87
2023-03-14T06:01:44.981Z,0.90
2023-03-14T06:04:20.934Z,1.13
2023-03-14T06:06:58.398Z,1.01
2023-03-14T06:09:28.812Z,0.90
2023-03-14T06:12:01.774Z,0.93
2023-03-14T06:14:36.372Z,1.26
2023-03-14T06:17:06.456Z,1.15
2023-03-14T06:19:42.921Z,1.40
2023-03-14T06:22:18.809Z,1.33
2023-03-14T06:24:49.584Z,1.21
2023-03-14T06:27:21.096Z,1.20
2023-03-14T06:29:51.785Z,1.66
2023-03-14T06:32:22.041Z,1.52
2023-03-14T06:34:55.408Z,1.28
2023-03-14T06:37:28.160Z,1.35
2023-03-14T06:39:58.343Z,1.40
2023-03-14T06:42:46.579Z,1.24
2023-03-14T06:45:18.882Z,1.11
2023-03-14T06:47:49.350Z,1.46
2023-03-14T06:50:23.246Z,1.23
2023-03-14T06:52:56.632Z,1.29
2023-03-14T06:55:29.878Z,1.26
2023-03-14T06:58:00.066Z,1.07
2023-03-14T07:00:30.625Z,1.02
2023-03-14T07:03:01.190Z,1.33
2023-03-14T07:05:34.932Z,1.24
2023-03-14T07:08:07.544Z,1.09
2023-03-14T07:10:37.970Z,1.21
2023-03-14T07:13:09.977Z,1.15
2023-03-14T07:15:49.650Z,1.15
2023-03-14T07:18:19.506Z,1.35
2023-03-14T07:20:51.420Z,1.67
2023-03-14T07:23:25.272Z,1.31
2023-03-14T07:25:57.418Z,0.95
2023-03-14T07:28:29.619Z,1.02
2023-03-14T07:31:08.954Z,2.47
2023-03-14T07:33:39.042Z,2.11
2023-03-14T07:36:09.946Z,2.01
2023-03-14T07:38:43.332Z,1.39
2023-03-14T07:41:13.255Z,2.47
2023-03-14T07:43:50.386Z,2.41
2023-03-14T07:46:20.311Z,2.73
2023-03-14T07:48:50.212Z,3.06
2023-03-14T07:51:20.070Z,2.28
2023-03-14T07:53:52.562Z,1.32
2023-03-14T07:56:22.614Z,1.73
2023-03-14T07:58:52.528Z,2.08
2023-03-14T08:01:22.408Z,3.39
2023-03-14T08:03:52.353Z,1.93
2023-03-14T08:06:22.249Z,2.00
2023-03-14T08:08:55.032Z,1.63
2023-03-14T08:11:25.146Z,1.74
2023-03-14T08:13:55.050Z,1.10
2023-03-14T08:16:25.760Z,0.83
2023-03-14T08:18:55.727Z,0.78
2023-03-14T08:21:25.759Z,1.19
2023-03-14T08:23:58.188Z,2.20
2023-03-14T08:26:28.151Z,1.19
2023-03-14T08:28:58.048Z,1.00
2023-03-14T08:31:28.114Z,0.62
2023-03-14T08:33:58.010Z,0.66
2023-03-14T08:36:27.944Z,0.91
2023-03-14T08:39:00.876Z,1.15
2023-03-14T08:41:30.846Z,0.85
2023-03-14T08:44:00.854Z,0.99
2023-03-14T08:46:30.767Z,0.84
2023-03-14T08:49:00.702Z,1.65
2023-03-14T08:51:30.605Z,0.80
2023-03-14T08:54:03.089Z,0.75
2023-03-14T08:56:32.891Z,0.72
2023-03-14T08:59:02.764Z,0.82
2023-03-14T09:01:32.825Z,0.72
2023-03-14T09:04:02.810Z,0.76
2023-03-14T09:06:37.390Z,0.65
2023-03-14T09:09:09.998Z,1.43
2023-03-14T09:11:39.902Z,3.31
2023-03-14T09:14:10.160Z,2.43
2023-03-14T09:16:40.068Z,3.01
2023-03-14T09:19:10.014Z,2.45
2023-03-14T09:21:40.053Z,2.46
2023-03-14T09:24:13.071Z,1.70
2023-03-14T09:26:43.343Z,2.50
2023-03-14T09:29:13.617Z,2.03
2023-03-14T09:31:43.767Z,1.19
2023-03-14T09:34:13.747Z,1.02
2023-03-14T09:36:45.402Z,1.79
2023-03-14T09:39:18.054Z,2.06
2023-03-14T09:41:53.080Z,1.19
2023-03-14T09:44:28.608Z,1.02
2023-03-14T09:47:04.508Z,1.53
2023-03-14T09:49:37.880Z,1.14
2023-03-14T09:52:16.854Z,1.24
2023-03-14T09:54:54.268Z,0.86
2023-03-14T09:57:27.902Z,0.58
2023-03-14T10:00:06.449Z,0.89
2023-03-14T10:02:39.556Z,0.72
2023-03-14T10:05:19.091Z,0.90
2023-03-14T10:07:49.402Z,0.63
2023-03-14T10:10:25.407Z,0.62
2023-03-14T10:13:00.430Z,0.71
2023-03-14T10:15:35.048Z,0.58
2023-03-14T10:18:13.044Z,2.03
2023-03-14T10:20:45.558Z,2.02
2023-03-14T10:23:31.706Z,1.54
2023-03-14T10:26:12.216Z,0.85
2023-03-14T10:28:46.576Z,0.51
2023-03-14T10:31:17.735Z,0.58
2023-03-14T10:34:02.152Z,0.43
2023-03-14T10:36:35.708Z,0.44
2023-03-14T10:39:29.527Z,0.50
2023-03-14T10:42:08.899Z,0.43
2023-03-14T10:44:41.163Z,0.41
2023-03-14T10:47:21.944Z,1.06
2023-03-14T10:49:51.867Z,0.74
2023-03-14T10:52:31.554Z,1.57
2023-03-14T10:55:16.581Z,1.19
2023-03-14T10:57:49.160Z,1.05
2023-03-14T11:00:22.028Z,1.23
2023-03-14T11:03:07.481Z,0.82
2023-03-14T11:05:47.434Z,0.91
2023-03-14T11:08:27.570Z,0.99
2023-03-14T11:11:06.642Z,0.71
2023-03-14T11:13:48.297Z,0.83
2023-03-14T11:16:28.370Z,0.53
2023-03-14T11:19:17.629Z,0.83
2023-03-14T11:21:59.357Z,0.71
2023-03-14T11:24:48.345Z,0.94
2023-03-14T11:27:23.491Z,0.79
2023-03-14T11:30:10.409Z,0.63
2023-03-14T11:32:48.752Z,0.69
2023-03-14T11:35:26.878Z,0.62
2023-03-14T11:38:04.929Z,0.77
2023-03-14T11:40:38.032Z,0.98
2023-03-14T11:43:19.018Z,0.94
2023-03-14T11:45:55.586Z,1.07
2023-03-14T11:48:38.560Z,1.08
2023-03-14T11:51:17.425Z,1.19
2023-03-14T11:53:59.095Z,1.09
2023-03-14T11:56:37.260Z,1.16
2023-03-14T11:59:13.960Z,1.17
2023-03-14T12:01:56.800Z,1.12
2023-03-14T12:04:44.791Z,1.21
2023-03-14T12:07:24.985Z,1.29
2023-03-14T12:09:57.025Z,1.21
2023-03-14T12:12:30.795Z,1.14
2023-03-14T12:15:04.170Z,1.19
2023-03-14T12:17:44.296Z,1.22
2023-03-14T12:20:22.294Z,1.41
2023-03-14T12:22:55.754Z,1.52
2023-03-14T12:25:28.215Z,1.25
2023-03-14T12:28:20.029Z,1.57
2023-03-14T12:30:50.201Z,1.55
2023-03-14T12:33:37.906Z,1.26
2023-03-14T12:36:54.771Z,1.52
2023-03-14T12:39:46.916Z,1.59
2023-03-14T12:42:29.708Z,1.33
2023-03-14T12:45:25.274Z,0.95
2023-03-14T12:47:58.871Z,0.82
2023-03-14T12:50:38.736Z,0.93
2023-03-14T12:53:46.986Z,0.91
2023-03-14T12:56:28.576Z,0.87
2023-03-14T12:59:22.377Z,1.09
2023-03-14T13:01:59.035Z,0.87
2023-03-14T13:04:40.208Z,1.09
2023-03-14T13:07:33.259Z,1.16
2023-03-14T13:10:23.561Z,0.99
2023-03-14T13:12:57.958Z,0.90
2023-03-14T13:15:32.757Z,0.99
2023-03-14T13:18:12.716Z,0.87
2023-03-14T13:20:52.350Z,0.69
2023-03-14T13:23:30.315Z,0.73
2023-03-14T13:26:02.432Z,0.74
2023-03-14T13:28:34.505Z,0.82
2023-03-14T13:31:07.361Z,0.76
2023-03-14T13:33:38.350Z,0.71
2023-03-14T13:36:09.516Z,0.68
2023-03-14T13:38:42.004Z,0.81
2023-03-14T13:41:15.094Z,0.67
2023-03-14T13:43:48.153Z,0.84
2023-03-14T13:46:23.654Z,0.73
2023-03-14T13:48:57.176Z,0.88
2023-03-14T13:51:32.762Z,0.77
2023-03-14T13:54:06.711Z,0.88
2023-03-14T13:56:37.298Z,0.89
2023-03-14T13:59:07.171Z,0.90
2023-03-14T14:01:41.734Z,0.94
2023-03-14T14:04:20.164Z,1.12
2023-03-14T14:06:54.253Z,1.02
2023-03-14T14:09:30.837Z,1.00
2023-03-14T14:12:15.902Z,1.08
2023-03-14T14:14:52.150Z,1.37
2023-03-14T14:17:28.163Z,1.24
2023-03-14T14:20:00.224Z,1.01
2023-03-14T14:22:31.381Z,0.94
2023-03-14T14:25:05.268Z,1.02
2023-03-14T14:27:40.590Z,0.98
2023-03-14T14:30:30.839Z,1.08
2023-03-14T14:33:20.496Z,1.22
2023-03-14T14:35:58.204Z,1.40
2023-03-14T14:38:31.116Z,1.13
2023-03-14T14:41:07.037Z,1.29
2023-03-14T14:43:43.592Z,1.26
2023-03-14T14:46:23.753Z,1.44
2023-03-14T14:48:59.120Z,1.15
2023-03-14T14:51:36.448Z,1.48
2023-03-14T14:54:18.085Z,1.31
2023-03-14T14:56:56.609Z,1.21
2023-03-14T14:59:29.923Z,1.41
2023-03-14T15:02:02.396Z,1.38
2023-03-14T15:04:35.405Z,1.63
2023-03-14T15:07:05.677Z,1.84
2023-03-14T15:09:35.535Z,1.55
2023-03-14T15:12:08.976Z,1.62
2023-03-14T15:14:38.856Z,1.57
2023-03-14T15:17:14.068Z,1.50
2023-03-14T15:19:44.095Z,1.65
2023-03-14T15:22:17.076Z,2.87
2023-03-14T15:24:46.961Z,2.37
2023-03-14T15:27:21.937Z,1.83
2023-03-14T15:29:52.013Z,1.67
2023-03-14T15:32:21.955Z,1.80
2023-03-14T15:34:51.933Z,1.88
2023-03-14T15:37:21.802Z,2.46
2023-03-14T15:39:51.749Z,2.02
2023-03-14T15:42:24.248Z,1.93
2023-03-14T15:44:54.172Z,1.62
2023-03-14T15:47:24.078Z,1.59
2023-03-14T15:49:53.965Z,1.88
2023-03-14T15:52:23.871Z,1.72
2023-03-14T15:54:53.747Z,1.83
2023-03-14T15:57:26.200Z,1.81
2023-03-14T15:59:56.220Z,1.84
2023-03-14T16:02:26.173Z,1.95
2023-03-14T16:04:56.107Z,1.97
2023-03-14T16:07:26.042Z,1.88
2023-03-14T16:09:55.912Z,1.62
2023-03-14T16:12:28.588Z,1.74
2023-03-14T16:14:58.531Z,1.87
2023-03-14T16:17:28.591Z,1.61
2023-03-14T16:19:58.562Z,1.40
2023-03-14T16:22:30.502Z,1.71
2023-03-14T16:25:00.389Z,1.75
2023-03-14T16:27:33.448Z,1.69
2023-03-14T16:30:03.321Z,1.63
2023-03-14T16:32:33.644Z,1.62
2023-03-14T16:35:04.505Z,3.43
2023-03-14T16:37:34.705Z,1.67
2023-03-14T16:40:13.779Z,1.76
2023-03-14T16:43:11.501Z,1.52
2023-03-14T16:45:40.425Z,2.27
2023-03-14T16:48:10.331Z,1.88
2023-03-14T16:50:43.153Z,2.82
2023-03-14T16:53:13.167Z,2.11
2023-03-14T16:55:46.922Z,2.17
2023-03-14T16:58:21.402Z,2.75
2023-03-14T17:00:52.520Z,2.77
2023-03-14T17:03:23.090Z,2.51
2023-03-14T17:05:55.103Z,2.66
2023-03-14T17:08:25.381Z,3.02
2023-03-14T17:10:55.343Z,1.64
2023-03-14T17:13:28.339Z,2.35
2023-03-14T17:16:00.758Z,2.26
2023-03-14T17:18:32.615Z,3.51
2023-03-14T17:21:03.508Z,4.34
2023-03-14T17:23:35.362Z,3.14
2023-03-14T17:26:05.566Z,2.36
2023-03-14T17:28:39.464Z,3.42
2023-03-14T17:31:11.730Z,1.86
2023-03-14T17:33:41.802Z,1.90
2023-03-14T17:36:13.933Z,2.04
2023-03-14T17:38:44.751Z,2.34
2023-03-14T17:41:16.828Z,1.83
2023-03-14T17:43:49.380Z,3.78
2023-03-14T17:46:19.520Z,2.88
2023-03-14T17:48:51.243Z,2.87
2023-03-14T17:51:21.259Z,4.07
2023-03-14T17:53:51.163Z,3.75
2023-03-14T17:56:21.091Z,2.68
2023-03-14T17:58:54.253Z,3.52
2023-03-14T18:01:24.991Z,5.22
2023-03-14T18:03:56.384Z,5.02
2023-03-14T18:06:30.193Z,4.25
2023-03-14T18:09:01.400Z,3.44
2023-03-14T18:11:31.618Z,3.29
2023-03-14T18:14:07.632Z,3.78
2023-03-14T18:16:38.396Z,3.32
2023-03-14T18:19:08.301Z,2.59
2023-03-14T18:21:40.362Z,3.08
2023-03-14T18:24:10.732Z,3.55
2023-03-14T18:26:40.716Z,2.22
2023-03-14T18:29:14.511Z,1.89
2023-03-14T18:31:45.486Z,2.59
2023-03-14T18:34:15.753Z,3.01
2023-03-14T18:36:45.612Z,3.64
2023-03-14T18:39:15.477Z,3.23
2023-03-14T18:41:45.442Z,2.95
2023-03-14T18:44:17.999Z,2.87
2023-03-14T18:46:48.701Z,2.36
2023-03-14T18:49:20.730Z,2.77
2023-03-14T18:51:51.318Z,2.64
2023-03-14T18:54:21.293Z,3.05
2023-03-14T18:56:51.883Z,3.05
2023-03-14T18:59:24.330Z,2.95
2023-03-14T19:01:54.347Z,2.65
2023-03-14T19:04:24.337Z,2.40
2023-03-14T19:06:55.170Z,2.92
2023-03-14T19:09:25.116Z,3.10
2023-03-14T19:11:55.025Z,3.31
2023-03-14T19:14:27.604Z,3.11
2023-03-14T19:16:57.575Z,3.24
2023-03-14T19:19:27.591Z,2.82
2023-03-14T19:21:57.441Z,2.79
2023-03-14T19:24:27.323Z,2.60
2023-03-14T19:26:57.208Z,2.35
2023-03-14T19:29:29.720Z,2.17
2023-03-14T19:31:59.897Z,2.08
2023-03-14T19:34:30.308Z,1.88
2023-03-14T19:37:00.158Z,2.00
2023-03-14T19:39:30.158Z,2.12
2023-03-14T19:42:00.116Z,2.16
2023-03-14T19:44:32.621Z,3.50
2023-03-14T19:47:04.017Z,2.73
2023-03-14T19:49:34.466Z,2.62
2023-03-14T19:52:04.400Z,2.20
2023-03-14T19:54:34.408Z,1.92
2023-03-14T19:57:06.017Z,2.71
2023-03-14T19:59:38.683Z,2.10
2023-03-14T20:02:08.640Z,2.29
2023-03-14T20:04:38.494Z,2.01
2023-03-14T20:07:08.509Z,2.16
2023-03-14T20:09:38.498Z,2.17
2023-03-14T20:12:08.565Z,2.17
2023-03-14T20:14:41.356Z,1.98
2023-03-14T20:17:11.388Z,2.30
2023-03-14T20:19:42.040Z,1.96
2023-03-14T20:22:11.931Z,2.04
2023-03-14T20:24:41.785Z,2.09
2023-03-14T20:27:11.689Z,2.02
2023-03-14T20:29:44.177Z,2.02
2023-03-14T20:32:14.238Z,1.72
2023-03-14T20:34:44.336Z,1.87
2023-03-14T20:37:14.191Z,1.62
2023-03-14T20:39:44.311Z,1.87
2023-03-14T20:42:14.222Z,1.58
2023-03-14T20:44:46.756Z,1.45
2023-03-14T20:47:16.679Z,1.56
2023-03-14T20:49:46.582Z,1.59
2023-03-14T20:52:16.508Z,1.46
2023-03-14T20:54:46.342Z,1.65
2023-03-14T20:57:16.769Z,2.04
2023-03-14T20:59:49.345Z,1.54
2023-03-14T21:02:19.172Z,1.76
2023-03-14T21:04:49.503Z,1.43
2023-03-14T21:07:20.084Z,1.42
2023-03-14T21:09:50.020Z,1.68
2023-03-14T21:12:19.857Z,1.53
2023-03-14T21:14:52.342Z,1.48
2023-03-14T21:17:22.178Z,2.28
2023-03-14T21:19:58.348Z,2.59
2023-03-14T21:22:29.673Z,2.50
2023-03-14T21:24:59.707Z,2.49
2023-03-14T21:27:29.536Z,2.55
2023-03-14T21:30:02.117Z,2.54
2023-03-14T21:32:32.139Z,2.58
2023-03-14T21:35:02.249Z,2.54
2023-03-14T21:37:32.142Z,2.88
2023-03-14T21:40:01.969Z,2.66
2023-03-14T21:42:32.510Z,2.81
2023-03-14T21:45:05.065Z,3.03
2023-03-14T21:47:35.091Z,3.05
2023-03-14T21:50:05.048Z,3.15
2023-03-14T21:52:34.939Z,3.22
2023-03-14T21:55:06.115Z,3.04
2023-03-14T21:57:36.004Z,3.18
2023-03-14T22:00:12.549Z,2.80
2023-03-14T22:02:49.662Z,3.00
2023-03-14T22:05:24.653Z,2.95
2023-03-14T22:07:54.512Z,2.73
2023-03-14T22:10:24.401Z,2.72
2023-03-14T22:12:56.101Z,2.72
2023-03-14T22:15:28.661Z,2.75
2023-03-14T22:17:58.606Z,2.78
2023-03-14T22:20:28.479Z,2.77
2023-03-14T22:22:58.478Z,2.67
2023-03-14T22:25:28.526Z,2.55
2023-03-14T22:27:58.553Z,2.56
2023-03-14T22:30:31.264Z,2.60
2023-03-14T22:33:01.381Z,2.60
2023-03-14T22:35:31.431Z,2.78
2023-03-14T22:38:01.534Z,2.74
2023-03-14T22:40:31.528Z,2.25
2023-03-14T22:43:01.503Z,2.29
2023-03-14T22:45:34.032Z,2.25
2023-03-14T22:48:04.014Z,2.12
2023-03-14T22:50:33.883Z,2.11
2023-03-14T22:53:04.447Z,1.91
2023-03-14T22:55:34.417Z,2.11
2023-03-14T22:58:04.447Z,2.21
2023-03-14T23:00:39.146Z,2.30
2023-03-14T23:03:09.222Z,2.14
2023-03-14T23:05:39.234Z,2.24
2023-03-14T23:08:09.504Z,2.47
2023-03-14T23:10:40.361Z,2.55
2023-03-14T23:13:14.616Z,2.69
2023-03-14T23:15:47.636Z,3.18
2023-03-14T23:18:17.813Z,2.79
2023-03-14T23:20:51.038Z,2.87
2023-03-14T23:23:20.940Z,3.58
2023-03-14T23:25:53.781Z,3.68
2023-03-14T23:28:24.441Z,3.42
2023-03-14T23:31:00.309Z,2.95
2023-03-14T23:33:32.036Z,3.02
2023-03-14T23:36:04.028Z,3.15
2023-03-14T23:38:35.583Z,3.38
2023-03-14T23:41:05.847Z,3.10
2023-03-14T23:43:38.947Z,3.26
2023-03-14T23:46:14.343Z,2.82
2023-03-14T23:48:47.172Z,2.98
2023-03-14T23:51:18.374Z,2.81
2023-03-14T23:53:50.393Z,2.86
2023-03-14T23:56:21.270Z,2.62
2023-03-14T23:58:51.211Z,2.69
